»·PEaware :: N1XC KSBA-KBUR

N1XC :: KSBA-KBUR

FLIGHT INFORMATION

Flight Status: Arrived
Operator: Privately registered:
United States
More flights under this callsign
Pilot: Adam S. (8156)
Aircraft: CESSNA T210 TURBO CENTURION
(T210)
More flights by this aircraft type
Origin: KSBA Santa Barbara Mun
United States
Destination: KBUR Bob Hope-Burbank
United States
More flights between these airports :: More routes between these airports
Route: +
File this flight plan on PilotEdge
Remarks: CAT8
Altitude:
(Current/Filed)
5,500ft
Speed:
(Current/Filed)
0kts
Departed: 30-Aug-17 10:50 AM
Arrived: 30-Aug-17 11:28 AM
Distance/Time
Traveled:
75nm/0:38
Distance/Time
To Go:
Arrived

Flight Plot

Page will automatically refresh every two minutes.


Map Options




Map Legend


Flown Route
Filed Route
Departure Airport
Arrival Airport
Navaid (VOR, NDB)
Fix

Horizontal Profiles

Position Reports

Time Latitude Longitude Heading Altitude Ground
Speed
30-Aug-17 10:44 34.423071 -119.836082 161 17ft 0kts
30-Aug-17 10:45 34.423071 -119.836082 161 17ft 0kts
30-Aug-17 10:46 34.423071 -119.836082 161 17ft 0kts
30-Aug-17 10:47 34.423095 -119.836037 268 17ft 1kts
30-Aug-17 10:48 34.426302 -119.838233 348 17ft 18kts
30-Aug-17 10:49 34.427042 -119.834586 347 17ft 0kts
30-Aug-17 10:50 34.427041 -119.834586 348 17ft 0kts
30-Aug-17 10:51 34.427041 -119.834586 347 17ft 0kts
30-Aug-17 10:52 34.427043 -119.834586 348 17ft 0kts
30-Aug-17 10:53 34.427046 -119.834587 352 17ft 0kts
30-Aug-17 10:54 34.427496 -119.849770 261 340ft 88kts
30-Aug-17 10:55 34.424448 -119.880830 263 1228ft 95kts
30-Aug-17 10:56 34.421589 -119.917375 262 1373ft 122kts
30-Aug-17 10:57 34.417303 -119.956994 258 1457ft 114kts
30-Aug-17 10:58 34.411319 -119.994891 256 1740ft 105kts
30-Aug-17 10:59 34.430278 -120.002006 61 2491ft 106kts
30-Aug-17 11:00 34.436748 -119.967019 88 3240ft 103kts
30-Aug-17 11:01 34.435218 -119.930244 98 3785ft 111kts
30-Aug-17 11:02 34.431024 -119.893157 100 4368ft 111kts
30-Aug-17 11:03 34.426028 -119.856002 101 4952ft 112kts
30-Aug-17 11:04 34.420780 -119.818798 102 5510ft 114kts
30-Aug-17 11:05 34.414644 -119.776481 101 5458ft 132kts
30-Aug-17 11:06 34.408407 -119.733304 102 5452ft 131kts
30-Aug-17 11:07 34.402085 -119.689827 101 5452ft 132kts
30-Aug-17 11:08 34.395730 -119.646180 101 5456ft 135kts
30-Aug-17 11:09 34.388105 -119.594471 101 5457ft 168kts
30-Aug-17 11:10 34.379837 -119.538072 101 5479ft 171kts
30-Aug-17 11:11 34.371463 -119.481087 101 5479ft 172kts
30-Aug-17 11:12 34.363068 -119.424140 101 5479ft 172kts
30-Aug-17 11:13 34.354658 -119.367287 101 5479ft 172kts
30-Aug-17 11:14 34.347131 -119.316568 102 5479ft 172kts
30-Aug-17 11:15 34.338841 -119.260797 102 5478ft 170kts
30-Aug-17 11:16 34.330463 -119.204745 102 5479ft 171kts
30-Aug-17 11:17 34.322372 -119.150774 102 5479ft 172kts
30-Aug-17 11:18 34.313847 -119.094073 102 5479ft 172kts
30-Aug-17 11:19 34.305290 -119.037326 102 5479ft 172kts
30-Aug-17 11:20 34.296769 -118.980996 102 5479ft 172kts
30-Aug-17 11:21 34.288135 -118.924386 101 5479ft 171kts
30-Aug-17 11:22 34.279598 -118.868323 101 5479ft 171kts
30-Aug-17 11:23 34.270951 -118.811750 101 5479ft 172kts
30-Aug-17 11:24 34.262315 -118.755412 101 5480ft 172kts
30-Aug-17 11:25 34.253325 -118.696870 101 5028ft 186kts
30-Aug-17 11:26 34.243972 -118.636688 101 4484ft 186kts
30-Aug-17 11:27 34.229172 -118.580901 114 3938ft 186kts
30-Aug-17 11:28 34.209474 -118.526068 112 3446ft 184kts
30-Aug-17 11:29 34.198457 -118.472009 91 3278ft 169kts
30-Aug-17 11:30 34.197426 -118.422085 86 2767ft 131kts
30-Aug-17 11:31 34.198148 -118.383614 92 1165ft 102kts
30-Aug-17 11:32 34.197669 -118.360657 117 734ft 22kts
30-Aug-17 11:33 34.196970 -118.360276 177 734ft 0kts
30-Aug-17 11:34 34.196788 -118.359286 113 734ft 15kts
30-Aug-17 11:35 34.195860 -118.357704 104 734ft 0kts

Navigation Log

Ident Type
Flight plan parsing failed, navigation log unavailable